»·PEaware :: N8675U L52-L88

N8675U :: L52-L88

FLIGHT INFORMATION

Flight Status: Arrived
Operator: Privately registered:
United States
More flights under this callsign
Pilot: Ken S. (21261)
Aircraft: PIPER PA-28 CHEROKEE ARCHER
(PA28)
More flights by this aircraft type
Origin: L52 Oceano Co
United States
Destination: L88 New Cuyama
United States
More flights between these airports :: More routes between these airports
Route:
File this flight plan on PilotEdge
Remarks: CAT1
Altitude:
(Current/Filed)
3,500ft
Speed:
(Current/Filed)
100kts
Departed: 06-Dec-18 09:13 AM
Arrived: 06-Dec-18 09:44 AM
Distance/Time
Traveled:
47nm/0:31
Distance/Time
To Go:
Arrived

Flight Plot

Page will automatically refresh every two minutes.


Map Options




Map Legend


Flown Route
Filed Route
Departure Airport
Arrival Airport
Navaid (VOR, NDB)
Fix

Horizontal Profiles

Position Reports

Time Latitude Longitude Heading Altitude Ground
Speed
06-Dec-18 08:52 35.103552 -120.624284 214 16ft 0kts
06-Dec-18 08:53 35.103552 -120.624284 214 16ft 0kts
06-Dec-18 08:54 35.103552 -120.624284 214 16ft 0kts
06-Dec-18 08:55 35.103552 -120.624284 214 16ft 0kts
06-Dec-18 08:56 35.103552 -120.624284 214 16ft 0kts
06-Dec-18 08:57 35.103552 -120.624284 214 16ft 0kts
06-Dec-18 08:58 35.103552 -120.624284 214 16ft 0kts
06-Dec-18 08:59 35.103552 -120.624284 214 16ft 0kts
06-Dec-18 09:00 35.103552 -120.624284 214 16ft 0kts
06-Dec-18 09:01 35.103552 -120.624284 214 16ft 0kts
06-Dec-18 09:02 35.103552 -120.624284 214 16ft 0kts
06-Dec-18 09:03 35.103552 -120.624284 214 16ft 0kts
06-Dec-18 09:04 35.103552 -120.624284 214 16ft 0kts
06-Dec-18 09:05 35.103519 -120.624309 216 16ft 3kts
06-Dec-18 09:06 35.103749 -120.625123 178 15ft 0kts
06-Dec-18 09:07 35.103749 -120.625123 178 15ft 0kts
06-Dec-18 09:08 35.103748 -120.625123 178 15ft 0kts
06-Dec-18 09:09 35.103748 -120.625123 179 15ft 0kts
06-Dec-18 09:11 35.103749 -120.625123 178 15ft 0kts
06-Dec-18 09:12 35.103455 -120.625212 213 15ft 5kts
06-Dec-18 09:13 35.092529 -120.608999 132 550ft 88kts
06-Dec-18 09:14 35.101701 -120.577140 80 1132ft 95kts
06-Dec-18 09:15 35.102468 -120.544864 86 1552ft 81kts
06-Dec-18 09:16 35.103937 -120.516594 90 2298ft 80kts
06-Dec-18 09:17 35.103818 -120.488773 87 3195ft 81kts
06-Dec-18 09:18 35.105580 -120.459413 77 3669ft 95kts
06-Dec-18 09:19 35.107137 -120.423782 90 3701ft 103kts
06-Dec-18 09:20 35.108104 -120.388636 86 3779ft 102kts
06-Dec-18 09:21 35.111025 -120.350428 85 3470ft 107kts
06-Dec-18 09:22 35.111829 -120.314181 92 3613ft 101kts
06-Dec-18 09:23 35.113029 -120.278422 90 3694ft 102kts
06-Dec-18 09:24 35.114655 -120.243067 88 3779ft 102kts
06-Dec-18 09:25 35.113572 -120.207706 94 3865ft 101kts
06-Dec-18 09:26 35.114569 -120.171782 85 3941ft 102kts
06-Dec-18 09:27 35.115159 -120.135624 85 4015ft 102kts
06-Dec-18 09:28 35.112377 -120.099804 95 4068ft 103kts
06-Dec-18 09:29 35.111786 -120.064384 90 4135ft 102kts
06-Dec-18 09:30 35.101560 -120.030611 110 4183ft 102kts
06-Dec-18 09:31 35.085223 -120.001826 150 4137ft 106kts
06-Dec-18 09:31 35.061719 -119.988491 151 4062ft 112kts
06-Dec-18 09:33 35.038966 -119.955002 117 4055ft 108kts
06-Dec-18 09:33 35.026454 -119.927805 118 4054ft 107kts
06-Dec-18 09:34 35.011610 -119.895208 128 4023ft 107kts
06-Dec-18 09:36 34.984244 -119.868145 146 3721ft 101kts
06-Dec-18 09:36 34.965014 -119.849824 126 3431ft 99kts
06-Dec-18 09:37 34.946721 -119.823189 126 3325ft 98kts
06-Dec-18 09:38 34.935425 -119.791282 111 3259ft 97kts
06-Dec-18 09:39 34.927600 -119.758101 102 3266ft 97kts
06-Dec-18 09:40 34.922253 -119.724410 100 3297ft 96kts
06-Dec-18 09:41 34.930195 -119.693468 82 3066ft 100kts
06-Dec-18 09:42 34.934335 -119.673162 325 2580ft 77kts
06-Dec-18 09:43 34.941108 -119.688426 295 2165ft 39kts
06-Dec-18 09:44 34.943707 -119.691170 213 2154ft 6kts
06-Dec-18 09:45 34.943590 -119.691128 117 2155ft 0kts
06-Dec-18 09:46 34.943590 -119.691128 117 2155ft 0kts
06-Dec-18 09:47 34.943590 -119.691128 117 2155ft 0kts
06-Dec-18 09:48 34.943590 -119.691128 117 2155ft 0kts
06-Dec-18 09:49 34.943590 -119.691128 117 2155ft 0kts
06-Dec-18 09:50 34.943590 -119.691128 117 2155ft 0kts
06-Dec-18 09:51 34.943590 -119.691128 117 2155ft 0kts

Navigation Log

Ident Type
Flight plan parsing failed, navigation log unavailable